Time;durP1;ratioP1;P1;durP2;ratioP2;P2;SDS_P1;SDS_P2;PMS_P1;PMS_P2;Temp;Humidity;BMP_temperature;BMP_pressure;BME280_temperature;BME280_humidity;BME280_pressure;Samples;Min_cycle;Max_cycle;Signal;HPM_P1;HPM_P2
2023/08/17 00:00:56;;;;;;;2.00;1.90;;;23.90;53.50;;;;;;5013961;28;20257;-81
2023/08/17 00:03:22;;;;;;;2.23;2.13;;;23.90;53.50;;;;;;5014867;28;20256;-81
2023/08/17 00:05:47;;;;;;;3.13;2.40;;;23.90;53.50;;;;;;5031907;28;20252;-79
2023/08/17 00:08:13;;;;;;;2.07;1.97;;;23.90;53.50;;;;;;5016723;28;20233;-80
2023/08/17 00:10:39;;;;;;;2.33;2.23;;;23.80;53.40;;;;;;5010388;28;20230;-80
2023/08/17 00:13:04;;;;;;;2.50;2.40;;;23.90;53.50;;;;;;5033334;28;20221;-80
2023/08/17 00:15:30;;;;;;;2.47;2.23;;;23.90;53.50;;;;;;5033808;28;20355;-80
2023/08/17 00:17:55;;;;;;;2.20;2.10;;;23.90;53.50;;;;;;5013837;28;20724;-79
2023/08/17 00:20:21;;;;;;;2.40;2.30;;;23.90;53.50;;;;;;5035452;28;20244;-80
2023/08/17 00:22:49;;;;;;;2.47;2.37;;;23.80;53.40;;;;;;5032358;28;20244;-81
2023/08/17 00:25:15;;;;;;;2.87;2.70;;;23.90;53.50;;;;;;5031782;28;20242;-80
2023/08/17 00:27:40;;;;;;;2.30;2.20;;;23.90;53.50;;;;;;5015335;28;20473;-79
2023/08/17 00:30:07;;;;;;;1.97;1.87;;;23.80;53.40;;;;;;5012919;28;20818;-79
2023/08/17 00:32:32;;;;;;;2.00;1.90;;;23.90;53.50;;;;;;5013669;28;20233;-81
2023/08/17 00:34:58;;;;;;;1.80;1.70;;;23.90;53.50;;;;;;5011708;28;20498;-80
2023/08/17 00:37:24;;;;;;;2.20;2.10;;;23.80;53.40;;;;;;5032432;28;20680;-80
2023/08/17 00:39:49;;;;;;;2.43;2.33;;;23.80;53.40;;;;;;5035147;28;20229;-80
2023/08/17 00:42:15;;;;;;;2.23;2.13;;;23.80;53.40;;;;;;5033470;28;20222;-79
2023/08/17 00:44:41;;;;;;;1.83;1.73;;;23.80;53.50;;;;;;5036015;28;20275;-79
2023/08/17 00:47:07;;;;;;;2.37;2.17;;;23.80;53.40;;;;;;5038168;28;20466;-81
2023/08/17 00:49:34;;;;;;;2.00;1.90;;;23.80;53.40;;;;;;5016407;28;20222;-80
2023/08/17 00:52:00;;;;;;;2.00;1.90;;;23.80;53.40;;;;;;5036348;28;20218;-80
2023/08/17 00:54:29;;;;;;;2.20;2.10;;;23.80;53.40;;;;;;5035912;28;22385;-80
2023/08/17 00:56:55;;;;;;;1.90;1.80;;;23.80;53.40;;;;;;5034522;28;20455;-79
2023/08/17 00:59:21;;;;;;;2.10;2.00;;;23.80;53.40;;;;;;5018625;28;20443;-80
2023/08/17 01:01:48;;;;;;;2.00;1.90;;;23.80;53.50;;;;;;5032010;28;20222;-81
2023/08/17 01:04:13;;;;;;;1.97;1.87;;;23.80;53.50;;;;;;5013597;28;20454;-80
2023/08/17 01:06:39;;;;;;;1.80;1.70;;;23.80;53.40;;;;;;5017769;28;20547;-79
2023/08/17 01:09:05;;;;;;;2.20;2.10;;;23.80;53.40;;;;;;5037978;28;21025;-80
2023/08/17 01:11:39;;;;;;;2.13;2.03;;;23.80;53.40;;;;;;5040482;28;20249;-80
2023/08/17 01:14:09;;;;;;;2.23;2.13;;;23.80;53.40;;;;;;5038551;28;21000;-80
2023/08/17 01:16:47;;;;;;;2.30;2.20;;;23.80;53.40;;;;;;5036574;28;20478;-80
2023/08/17 01:19:18;;;;;;;2.00;1.90;;;23.80;53.50;;;;;;5038505;28;20864;-80
2023/08/17 01:21:50;;;;;;;2.73;2.63;;;23.80;53.50;;;;;;5016561;28;20483;-80
2023/08/17 01:24:17;;;;;;;2.10;2.00;;;23.80;53.40;;;;;;5019699;28;20562;-80
2023/08/17 01:26:42;;;;;;;1.80;1.70;;;23.80;53.40;;;;;;5017394;28;20476;-81
2023/08/17 01:29:08;;;;;;;2.30;2.20;;;23.80;53.40;;;;;;5021119;28;20221;-80
2023/08/17 01:31:58;;;;;;;2.40;2.30;;;23.80;53.40;;;;;;5035188;28;20230;-81
2023/08/17 01:34:27;;;;;;;1.70;1.60;;;23.80;53.40;;;;;;5015950;28;20235;-80
2023/08/17 01:36:57;;;;;;;1.73;1.63;;;23.80;53.50;;;;;;5019313;28;20999;-81
2023/08/17 01:39:26;;;;;;;2.60;2.40;;;23.80;53.40;;;;;;5019492;28;20456;-80
2023/08/17 01:41:55;;;;;;;1.97;1.87;;;23.80;53.50;;;;;;5017446;28;20456;-81
2023/08/17 01:44:21;;;;;;;2.00;1.90;;;23.80;53.40;;;;;;5017130;28;21016;-81
2023/08/17 01:46:46;;;;;;;1.87;1.77;;;23.80;53.40;;;;;;5017420;28;20526;-80
2023/08/17 01:49:12;;;;;;;1.97;1.87;;;23.80;53.40;;;;;;5019689;28;21212;-81
2023/08/17 01:51:38;;;;;;;1.90;1.80;;;23.80;53.40;;;;;;5019761;28;20225;-80
2023/08/17 01:54:03;;;;;;;2.20;2.10;;;23.80;53.40;;;;;;5017057;28;20234;-79
2023/08/17 01:56:29;;;;;;;1.70;1.60;;;23.80;53.40;;;;;;5018858;28;20980;-80
2023/08/17 01:58:55;;;;;;;2.50;2.30;;;23.80;53.40;;;;;;5020093;28;20266;-79
2023/08/17 02:01:20;;;;;;;1.90;1.80;;;23.80;53.40;;;;;;5017396;28;20241;-80
2023/08/17 02:03:46;;;;;;;2.30;2.10;;;23.80;53.40;;;;;;5018977;28;20221;-79
2023/08/17 02:06:11;;;;;;;1.87;1.77;;;23.80;53.50;;;;;;5017624;28;20724;-79
2023/08/17 02:08:38;;;;;;;2.20;2.10;;;23.80;53.40;;;;;;5019898;28;20218;-81
2023/08/17 02:11:03;;;;;;;1.80;1.70;;;23.80;53.40;;;;;;5020599;28;20268;-80
2023/08/17 02:13:29;;;;;;;1.93;1.83;;;23.80;53.40;;;;;;5018494;28;20858;-80
2023/08/17 02:15:55;;;;;;;2.00;1.90;;;23.80;53.40;;;;;;5018464;28;20227;-80
2023/08/17 02:18:20;;;;;;;1.90;1.80;;;23.80;53.40;;;;;;5021915;28;20765;-79
2023/08/17 02:20:46;;;;;;;1.90;1.80;;;23.80;53.40;;;;;;5016996;28;20226;-80
2023/08/17 02:23:11;;;;;;;2.07;1.97;;;23.80;53.40;;;;;;5037661;28;20257;-79
2023/08/17 02:25:40;;;;;;;2.10;2.00;;;23.80;53.40;;;;;;5039163;28;20268;-79
2023/08/17 02:28:06;;;;;;;1.80;1.70;;;23.80;53.40;;;;;;5020706;28;20217;-79
2023/08/17 02:30:32;;;;;;;2.10;2.00;;;23.80;53.40;;;;;;5038768;28;20503;-79
2023/08/17 02:32:57;;;;;;;2.10;2.00;;;23.80;53.40;;;;;;5038745;28;20547;-80
2023/08/17 02:35:23;;;;;;;1.87;1.77;;;23.80;53.40;;;;;;5036516;28;20221;-80
2023/08/17 02:37:48;;;;;;;1.87;1.77;;;23.80;53.40;;;;;;5038859;28;20599;-80
2023/08/17 02:40:14;;;;;;;1.70;1.60;;;23.80;53.40;;;;;;5017120;28;20229;-81
2023/08/17 02:42:40;;;;;;;1.60;1.50;;;23.80;53.40;;;;;;5015837;28;20230;-80
2023/08/17 02:45:08;;;;;;;1.67;1.57;;;23.80;53.40;;;;;;5019401;28;20228;-80
2023/08/17 02:47:34;;;;;;;1.97;1.87;;;23.80;53.50;;;;;;5017616;28;20222;-80
2023/08/17 02:49:59;;;;;;;2.77;1.70;;;23.80;53.40;;;;;;5038384;28;20451;-80
2023/08/17 02:52:25;;;;;;;1.70;1.60;;;23.80;53.40;;;;;;5038388;28;20214;-80
2023/08/17 02:54:50;;;;;;;1.93;1.83;;;23.80;53.50;;;;;;5040585;28;20684;-80
2023/08/17 02:57:17;;;;;;;1.70;1.60;;;23.70;53.30;;;;;;5017512;28;20229;-80
2023/08/17 02:59:43;;;;;;;1.97;1.87;;;23.80;53.50;;;;;;5019690;28;20673;-81
2023/08/17 03:02:08;;;;;;;1.90;1.80;;;23.80;53.40;;;;;;5013151;28;20451;-79
2023/08/17 03:04:34;;;;;;;1.90;1.73;;;23.80;53.40;;;;;;5020236;28;20275;-80
2023/08/17 03:06:59;;;;;;;2.00;1.90;;;23.80;53.40;;;;;;5036159;28;20261;-81
2023/08/17 03:09:25;;;;;;;2.07;1.97;;;23.80;53.50;;;;;;5019542;28;20847;-80
2023/08/17 03:11:51;;;;;;;1.77;1.67;;;23.80;53.40;;;;;;5018166;28;20985;-80
2023/08/17 03:14:16;;;;;;;1.83;1.73;;;23.80;53.40;;;;;;5038312;28;20228;-79
2023/08/17 03:16:42;;;;;;;1.67;1.57;;;23.80;53.40;;;;;;5034183;28;20301;-79
2023/08/17 03:19:10;;;;;;;1.77;1.67;;;23.80;53.50;;;;;;5021266;28;20245;-79
2023/08/17 03:21:36;;;;;;;1.50;1.40;;;23.80;53.40;;;;;;5036536;28;20861;-79
2023/08/17 03:24:01;;;;;;;2.07;1.97;;;23.80;53.40;;;;;;5037936;28;20561;-80
2023/08/17 03:26:27;;;;;;;2.17;2.07;;;23.80;53.40;;;;;;5036141;28;20829;-80
2023/08/17 03:28:53;;;;;;;2.20;2.10;;;23.80;53.40;;;;;;5020748;28;20703;-79
2023/08/17 03:31:21;;;;;;;1.80;1.70;;;23.80;53.30;;;;;;5019772;28;20576;-78
2023/08/17 03:33:46;;;;;;;1.80;1.70;;;23.80;53.30;;;;;;5015171;28;20221;-79
2023/08/17 03:36:12;;;;;;;2.00;1.90;;;23.80;54.10;;;;;;5035686;28;20459;-79
2023/08/17 03:38:39;;;;;;;1.97;1.87;;;23.80;53.30;;;;;;5040016;28;20656;-79
2023/08/17 03:41:05;;;;;;;1.80;1.70;;;23.80;53.20;;;;;;5032886;28;20685;-79
2023/08/17 03:43:30;;;;;;;1.50;1.40;;;23.80;53.20;;;;;;5016392;28;20474;-80
2023/08/17 03:45:56;;;;;;;1.80;1.70;;;23.80;53.10;;;;;;5011645;28;20470;-79
2023/08/17 03:48:22;;;;;;;1.80;1.70;;;23.80;53.10;;;;;;5036719;28;20230;-80
2023/08/17 03:50:52;;;;;;;2.07;1.97;;;23.80;53.00;;;;;;5015555;28;20222;-80
2023/08/17 03:53:17;;;;;;;2.47;1.70;;;23.80;53.00;;;;;;5036942;28;21112;-79
2023/08/17 03:55:48;;;;;;;1.80;1.70;;;23.80;53.00;;;;;;5032274;28;20454;-79
2023/08/17 03:58:13;;;;;;;1.93;1.80;;;23.70;52.80;;;;;;5035620;28;20621;-80
2023/08/17 04:00:40;;;;;;;2.13;2.03;;;23.70;52.90;;;;;;5033105;28;20915;-79
2023/08/17 04:03:06;;;;;;;2.07;1.87;;;23.70;52.90;;;;;;5034128;28;20712;-79
2023/08/17 04:05:32;;;;;;;2.07;1.97;;;23.70;52.80;;;;;;5014589;28;20471;-79
2023/08/17 04:08:01;;;;;;;2.20;2.10;;;23.70;52.70;;;;;;5033953;28;20975;-80
2023/08/17 04:10:27;;;;;;;2.53;2.33;;;23.70;52.80;;;;;;5036541;28;20689;-78
2023/08/17 04:12:52;;;;;;;2.70;2.07;;;23.70;52.70;;;;;;5037709;28;20458;-81
2023/08/17 04:15:18;;;;;;;2.20;2.10;;;23.80;52.80;;;;;;5035324;28;20222;-80
2023/08/17 04:17:43;;;;;;;2.20;2.10;;;23.80;52.70;;;;;;5035017;28;20688;-80
2023/08/17 04:20:10;;;;;;;1.97;1.87;;;23.80;52.60;;;;;;5033590;28;20217;-79
2023/08/17 04:22:35;;;;;;;2.47;2.30;;;23.70;52.50;;;;;;5033060;28;20234;-79
2023/08/17 04:25:01;;;;;;;2.27;2.03;;;23.80;52.60;;;;;;5016506;28;20549;-78
2023/08/17 04:27:26;;;;;;;2.20;2.10;;;23.80;52.50;;;;;;5032687;28;20225;-79
2023/08/17 04:29:52;;;;;;;2.13;2.03;;;23.70;52.30;;;;;;5005523;28;20226;-78
2023/08/17 04:32:17;;;;;;;2.40;2.30;;;23.80;52.40;;;;;;5014205;28;20226;-79
2023/08/17 04:34:45;;;;;;;2.00;1.90;;;23.80;52.30;;;;;;5015968;28;20230;-80
2023/08/17 04:37:10;;;;;;;2.20;2.10;;;23.80;52.30;;;;;;5031220;28;20237;-82
2023/08/17 04:39:36;;;;;;;2.20;2.10;;;23.80;52.20;;;;;;5018030;28;20884;-81
2023/08/17 04:42:03;;;;;;;2.00;1.90;;;23.70;52.10;;;;;;5006406;28;20349;-77
2023/08/17 04:44:29;;;;;;;2.70;2.60;;;23.80;52.20;;;;;;5032494;28;20214;-78
2023/08/17 04:46:54;;;;;;;2.37;2.27;;;23.80;52.20;;;;;;5011824;28;20486;-78
2023/08/17 04:49:20;;;;;;;2.80;2.60;;;23.80;52.20;;;;;;5038303;28;20225;-78
2023/08/17 04:51:45;;;;;;;2.83;2.23;;;23.80;52.20;;;;;;5038748;28;20287;-79
2023/08/17 04:54:11;;;;;;;2.43;2.23;;;23.80;52.20;;;;;;5015621;28;20291;-79
2023/08/17 04:56:36;;;;;;;3.10;2.90;;;23.80;52.10;;;;;;5038010;28;20230;-80
2023/08/17 04:59:02;;;;;;;2.07;1.97;;;23.80;52.10;;;;;;5039638;28;20826;-80
2023/08/17 05:01:27;;;;;;;2.07;1.90;;;23.80;52.10;;;;;;5036973;28;20507;-80
2023/08/17 05:03:53;;;;;;;2.20;2.10;;;23.80;52.10;;;;;;5021112;28;20290;-81
2023/08/17 05:06:18;;;;;;;2.50;2.40;;;23.80;52.10;;;;;;5013426;28;20257;-78
2023/08/17 05:08:44;;;;;;;2.27;2.17;;;23.80;52.10;;;;;;5022129;28;20230;-80
2023/08/17 05:11:10;;;;;;;2.97;2.80;;;23.80;52.00;;;;;;5016445;28;20379;-80
2023/08/17 05:13:35;;;;;;;2.00;1.90;;;23.80;52.00;;;;;;5033838;28;20230;-79
2023/08/17 05:16:01;;;;;;;3.00;2.67;;;23.80;52.00;;;;;;5039473;28;20272;-76
2023/08/17 05:18:26;;;;;;;2.20;2.10;;;23.80;52.10;;;;;;5034084;28;20569;-79
2023/08/17 05:20:52;;;;;;;3.00;2.80;;;23.80;52.00;;;;;;5034409;28;20230;-82
2023/08/17 05:23:17;;;;;;;2.10;2.00;;;23.80;52.00;;;;;;5013841;28;20238;-77
2023/08/17 05:25:47;;;;;;;2.43;2.30;;;23.80;52.00;;;;;;5027387;28;20256;-76
2023/08/17 05:28:13;;;;;;;2.53;2.43;;;23.80;52.00;;;;;;5017342;28;20711;-76
2023/08/17 05:30:38;;;;;;;3.40;2.50;;;23.80;52.00;;;;;;5015427;28;20459;-76
2023/08/17 05:33:04;;;;;;;2.23;2.10;;;23.80;52.00;;;;;;5039380;28;20348;-75
2023/08/17 05:35:29;;;;;;;3.47;3.17;;;23.80;52.00;;;;;;5033806;28;20226;-75
2023/08/17 05:37:55;;;;;;;2.90;2.67;;;23.80;52.00;;;;;;5015915;28;20343;-75
2023/08/17 05:40:20;;;;;;;2.83;2.63;;;23.80;52.00;;;;;;5034397;28;20319;-75
2023/08/17 05:42:46;;;;;;;3.13;3.00;;;23.80;52.00;;;;;;5037767;28;20325;-75
2023/08/17 05:45:12;;;;;;;3.03;2.93;;;23.80;51.90;;;;;;5040319;28;20260;-76
2023/08/17 05:47:37;;;;;;;2.77;2.57;;;23.80;51.90;;;;;;5018160;28;20224;-76
2023/08/17 05:50:03;;;;;;;2.87;2.67;;;23.80;51.90;;;;;;5038392;28;21001;-76
2023/08/17 05:52:29;;;;;;;2.70;2.60;;;23.80;52.00;;;;;;5019370;28;20639;-76
2023/08/17 05:54:54;;;;;;;3.00;2.80;;;23.80;51.90;;;;;;5034823;28;20220;-75
2023/08/17 05:57:20;;;;;;;2.67;2.47;;;23.80;51.90;;;;;;5013004;28;20300;-75
2023/08/17 05:59:45;;;;;;;2.90;2.70;;;23.80;51.90;;;;;;5017632;28;20305;-76
2023/08/17 06:02:11;;;;;;;3.80;3.30;;;23.80;51.80;;;;;;5031949;28;20206;-76
2023/08/17 06:04:36;;;;;;;2.97;2.87;;;23.80;51.90;;;;;;5022895;28;20228;-77
2023/08/17 06:07:02;;;;;;;3.87;3.57;;;23.80;51.90;;;;;;5013114;28;20230;-77
2023/08/17 06:09:27;;;;;;;2.80;2.70;;;23.80;51.90;;;;;;5017588;28;20280;-77
2023/08/17 06:11:53;;;;;;;3.77;3.40;;;23.80;51.90;;;;;;5034657;28;20221;-76
2023/08/17 06:14:19;;;;;;;2.87;2.77;;;23.80;51.90;;;;;;5036245;28;20217;-77
2023/08/17 06:16:44;;;;;;;2.90;2.70;;;23.80;51.90;;;;;;5034290;28;20226;-77
2023/08/17 06:19:10;;;;;;;2.93;2.83;;;23.80;51.80;;;;;;5037917;28;20230;-77
2023/08/17 06:21:35;;;;;;;3.47;3.27;;;23.80;51.80;;;;;;5018578;28;20234;-77
2023/08/17 06:24:01;;;;;;;3.73;3.53;;;23.80;51.80;;;;;;5016912;28;20242;-77
2023/08/17 06:26:26;;;;;;;3.73;3.53;;;23.80;51.80;;;;;;5034886;28;20226;-76
2023/08/17 06:28:52;;;;;;;3.70;3.50;;;23.80;51.80;;;;;;5037678;28;20221;-77
2023/08/17 06:31:18;;;;;;;3.97;3.77;;;23.80;51.80;;;;;;5014753;28;20630;-77
2023/08/17 06:33:43;;;;;;;4.17;3.97;;;23.80;51.80;;;;;;5034265;28;20279;-78
2023/08/17 06:36:09;;;;;;;3.93;3.73;;;23.80;51.80;;;;;;5016518;28;20214;-77
2023/08/17 06:38:34;;;;;;;4.90;4.43;;;23.80;51.80;;;;;;5034205;28;20318;-77
2023/08/17 06:41:00;;;;;;;4.20;4.00;;;23.80;51.80;;;;;;5032810;28;20214;-77
2023/08/17 06:43:25;;;;;;;3.83;3.63;;;23.80;51.80;;;;;;5018456;28;20221;-75
2023/08/17 06:45:51;;;;;;;4.60;4.20;;;23.80;51.80;;;;;;5036564;28;20261;-75
2023/08/17 06:48:16;;;;;;;4.20;4.00;;;23.80;51.80;;;;;;5034348;28;20570;-75
2023/08/17 06:50:42;;;;;;;4.13;3.87;;;23.80;51.70;;;;;;5034720;28;20260;-75
2023/08/17 06:53:08;;;;;;;4.17;3.97;;;23.80;51.80;;;;;;5034209;28;20249;-75
2023/08/17 06:55:33;;;;;;;4.77;4.47;;;23.80;51.80;;;;;;5030012;28;20570;-75
2023/08/17 06:57:59;;;;;;;4.80;4.60;;;23.80;51.80;;;;;;5033171;28;20264;-75
2023/08/17 07:00:24;;;;;;;5.23;4.60;;;23.80;51.70;;;;;;5032149;28;21246;-75
2023/08/17 07:02:50;;;;;;;4.40;4.10;;;23.80;51.80;;;;;;5029865;28;20225;-75
2023/08/17 07:05:16;;;;;;;4.60;4.20;;;23.80;51.80;;;;;;5031287;28;20229;-75
2023/08/17 07:07:42;;;;;;;5.17;4.87;;;23.80;51.70;;;;;;5032016;28;20696;-75
2023/08/17 07:10:10;;;;;;;4.00;3.70;;;23.80;51.80;;;;;;5013889;28;21068;-76
2023/08/17 07:12:36;;;;;;;3.80;3.50;;;23.80;51.80;;;;;;5030754;28;20467;-76
2023/08/17 07:15:03;;;;;;;5.37;4.03;;;23.80;51.80;;;;;;5014373;28;20737;-77
2023/08/17 07:17:29;;;;;;;4.53;4.27;;;23.80;51.80;;;;;;5031720;28;20487;-76
2023/08/17 07:19:54;;;;;;;4.50;4.10;;;23.80;51.80;;;;;;5031927;28;20545;-76
2023/08/17 07:22:19;;;;;;;4.73;4.43;;;23.80;51.80;;;;;;5035541;28;20226;-76
2023/08/17 07:24:45;;;;;;;4.40;4.20;;;23.80;51.80;;;;;;5032598;28;20284;-77
2023/08/17 07:27:11;;;;;;;4.80;4.50;;;23.80;51.80;;;;;;5033298;28;20234;-76
2023/08/17 07:29:36;;;;;;;4.57;4.27;;;23.80;51.80;;;;;;5017303;28;20704;-76
2023/08/17 07:32:02;;;;;;;4.93;4.50;;;23.80;51.80;;;;;;5015143;28;20291;-76
2023/08/17 07:34:30;;;;;;;5.10;4.70;;;23.80;51.90;;;;;;5033824;28;20264;-76
2023/08/17 07:36:55;;;;;;;5.33;4.80;;;23.80;51.90;;;;;;5032982;28;20304;-75
2023/08/17 07:39:21;;;;;;;4.67;4.33;;;23.80;51.90;;;;;;5016766;28;20451;-76
2023/08/17 07:41:46;;;;;;;4.70;4.50;;;23.80;51.90;;;;;;5010987;28;20292;-76
2023/08/17 07:44:12;;;;;;;5.10;4.80;;;23.80;51.90;;;;;;5016128;28;21002;-76
2023/08/17 07:46:38;;;;;;;4.37;4.17;;;23.80;51.90;;;;;;5032572;28;20222;-76
2023/08/17 07:49:04;;;;;;;5.13;4.83;;;23.80;51.90;;;;;;5011688;28;20249;-76
2023/08/17 07:51:31;;;;;;;9.07;4.73;;;23.80;51.90;;;;;;5011169;28;20771;-76
2023/08/17 07:53:57;;;;;;;5.33;5.03;;;23.80;51.90;;;;;;5033407;28;20228;-76
2023/08/17 07:56:23;;;;;;;4.57;4.37;;;23.80;51.90;;;;;;5036032;28;20463;-76
2023/08/17 07:58:49;;;;;;;5.20;4.90;;;23.80;51.90;;;;;;5034079;28;20466;-76
2023/08/17 08:01:14;;;;;;;5.47;5.07;;;23.80;52.00;;;;;;5029104;28;20233;-76
2023/08/17 08:03:40;;;;;;;5.33;5.00;;;23.80;52.00;;;;;;5034063;28;20732;-76
2023/08/17 08:06:06;;;;;;;4.73;4.43;;;23.80;52.00;;;;;;5033454;28;20259;-76
2023/08/17 08:08:31;;;;;;;5.13;4.73;;;23.80;52.00;;;;;;5032762;28;20283;-76
2023/08/17 08:10:58;;;;;;;5.87;5.37;;;23.80;52.00;;;;;;5032843;28;20260;-77
2023/08/17 08:13:24;;;;;;;4.80;4.50;;;23.80;52.00;;;;;;5018543;28;20238;-76
2023/08/17 08:15:49;;;;;;;4.87;4.57;;;23.80;52.00;;;;;;5038329;28;21015;-76
2023/08/17 08:18:15;;;;;;;5.20;4.80;;;23.80;52.00;;;;;;5011225;28;20394;-76
2023/08/17 08:20:40;;;;;;;5.63;5.23;;;23.80;52.10;;;;;;5029295;28;20225;-76
2023/08/17 08:23:06;;;;;;;5.50;5.20;;;23.80;52.00;;;;;;5033134;28;20595;-76
2023/08/17 08:25:33;;;;;;;4.50;4.30;;;23.80;52.10;;;;;;5034297;28;20613;-76
2023/08/17 08:27:59;;;;;;;5.53;5.23;;;23.80;52.10;;;;;;5018437;28;20323;-76
2023/08/17 08:30:24;;;;;;;5.47;5.07;;;23.80;52.00;;;;;;5034551;28;20467;-76
2023/08/17 08:32:50;;;;;;;5.20;4.97;;;23.80;52.10;;;;;;5035541;28;20256;-77
2023/08/17 08:35:15;;;;;;;5.10;4.90;;;23.80;52.10;;;;;;5033847;28;20333;-76
2023/08/17 08:37:41;;;;;;;4.70;4.40;;;23.80;52.10;;;;;;5034262;28;20213;-76
2023/08/17 08:40:11;;;;;;;6.10;5.70;;;23.80;52.10;;;;;;5035142;28;20704;-76
2023/08/17 08:42:37;;;;;;;5.20;4.90;;;23.80;52.10;;;;;;5031426;28;20249;-76
2023/08/17 08:45:03;;;;;;;5.13;4.93;;;23.80;52.10;;;;;;5031584;28;20565;-76
2023/08/17 08:47:31;;;;;;;6.00;5.50;;;23.80;52.10;;;;;;5013192;28;20612;-76
2023/08/17 08:50:02;;;;;;;5.07;4.77;;;23.80;52.10;;;;;;5019212;28;20213;-76
2023/08/17 08:52:35;;;;;;;5.43;4.93;;;23.70;52.00;;;;;;5035773;28;20449;-77
2023/08/17 08:55:18;;;;;;;5.57;5.27;;;23.80;52.10;;;;;;5030515;28;20883;-77
2023/08/17 08:57:46;;;;;;;5.53;5.23;;;23.80;52.10;;;;;;5036461;28;20885;-76
2023/08/17 09:00:12;;;;;;;5.90;5.00;;;23.80;52.20;;;;;;5033751;28;21020;-76
2023/08/17 09:02:38;;;;;;;5.80;5.50;;;23.80;52.20;;;;;;5034659;28;21058;-77
2023/08/17 09:05:08;;;;;;;5.90;5.50;;;23.80;52.20;;;;;;5035911;28;20492;-77
2023/08/17 09:07:35;;;;;;;5.03;4.73;;;23.80;52.20;;;;;;5033933;28;20467;-78
2023/08/17 09:10:01;;;;;;;4.63;4.40;;;23.80;52.20;;;;;;5032307;28;20545;-77
2023/08/17 09:12:33;;;;;;;5.63;5.30;;;23.80;52.20;;;;;;5030548;28;20450;-77
2023/08/17 09:14:58;;;;;;;5.90;5.40;;;23.80;52.20;;;;;;5031774;28;20461;-77
2023/08/17 09:17:25;;;;;;;4.97;4.70;;;23.80;52.20;;;;;;5031972;28;20466;-76
2023/08/17 09:19:51;;;;;;;4.83;4.63;;;23.80;52.20;;;;;;5035085;28;20293;-76
2023/08/17 09:22:43;;;;;;;5.83;5.33;;;23.80;52.20;;;;;;5032471;28;20559;-77
2023/08/17 09:25:10;;;;;;;5.73;5.50;;;23.80;52.30;;;;;;5010539;28;20218;-76
2023/08/17 09:27:37;;;;;;;5.23;4.83;;;23.80;52.20;;;;;;5006681;28;20549;-76
2023/08/17 09:30:08;;;;;;;5.10;4.87;;;23.80;52.30;;;;;;5030724;28;20455;-75
2023/08/17 09:32:34;;;;;;;5.10;4.80;;;23.80;52.30;;;;;;5034136;28;20459;-76
2023/08/17 09:35:06;;;;;;;4.83;4.63;;;23.80;52.30;;;;;;5026261;28;21142;-75
2023/08/17 09:37:33;;;;;;;5.27;4.97;;;23.80;52.30;;;;;;5030799;28;20845;-75
2023/08/17 09:39:59;;;;;;;5.20;4.90;;;23.80;52.30;;;;;;5014737;28;20466;-75
2023/08/17 09:42:25;;;;;;;5.80;5.40;;;23.80;52.30;;;;;;5010998;28;20953;-75
2023/08/17 09:44:52;;;;;;;4.90;4.70;;;23.70;52.20;;;;;;5033908;28;20226;-76
2023/08/17 09:47:19;;;;;;;6.93;5.13;;;23.80;52.30;;;;;;5031637;28;20517;-75
2023/08/17 09:49:52;;;;;;;5.50;5.23;;;23.80;52.30;;;;;;5032478;28;20566;-76
2023/08/17 09:52:19;;;;;;;5.80;5.50;;;23.80;52.30;;;;;;5026654;28;21026;-76
2023/08/17 09:54:47;;;;;;;5.90;5.60;;;23.80;52.40;;;;;;5012188;28;20450;-75
2023/08/17 09:57:13;;;;;;;4.80;4.57;;;23.80;52.40;;;;;;5010467;28;21159;-76
2023/08/17 09:59:38;;;;;;;5.17;4.97;;;23.80;52.50;;;;;;5033158;28;20525;-76
2023/08/17 10:02:16;;;;;;;5.27;4.97;;;23.80;52.40;;;;;;5028947;28;20471;-76
2023/08/17 10:04:43;;;;;;;5.90;5.50;;;23.80;52.40;;;;;;5031385;28;20230;-74
2023/08/17 10:07:10;;;;;;;4.63;4.43;;;23.80;52.50;;;;;;5010093;28;20478;-76
2023/08/17 10:09:42;;;;;;;5.00;4.70;;;23.80;52.50;;;;;;5032414;28;20477;-76
2023/08/17 10:12:11;;;;;;;5.67;5.37;;;23.80;52.50;;;;;;5002996;28;20478;-76
2023/08/17 10:14:46;;;;;;;5.23;4.93;;;23.80;52.60;;;;;;5025509;28;20467;-76
2023/08/17 10:17:15;;;;;;;5.50;5.20;;;23.80;52.50;;;;;;5031852;28;20889;-76
2023/08/17 10:19:51;;;;;;;5.57;5.20;;;23.80;52.50;;;;;;5033186;28;20498;-76
2023/08/17 10:22:39;;;;;;;5.53;5.00;;;23.80;52.50;;;;;;5030209;28;21954;-76
2023/08/17 10:25:08;;;;;;;5.23;5.00;;;23.80;52.50;;;;;;5011873;28;20966;-75
2023/08/17 10:27:35;;;;;;;5.30;5.00;;;23.80;52.60;;;;;;5030820;28;21026;-76
2023/08/17 10:30:01;;;;;;;4.43;4.20;;;23.80;52.60;;;;;;5029918;28;20583;-76
2023/08/17 10:32:28;;;;;;;5.33;5.03;;;23.80;52.60;;;;;;5008936;28;20456;-75
2023/08/17 10:34:54;;;;;;;5.53;5.13;;;23.80;52.60;;;;;;5011232;28;20451;-76
2023/08/17 10:37:21;;;;;;;5.43;5.13;;;23.80;52.60;;;;;;5010257;28;20985;-77
2023/08/17 10:39:48;;;;;;;5.90;5.60;;;23.80;52.60;;;;;;5031641;28;20249;-77
2023/08/17 10:42:14;;;;;;;6.30;5.90;;;23.80;52.70;;;;;;5031362;28;25222;-77
2023/08/17 10:44:47;;;;;;;5.77;5.47;;;23.80;52.70;;;;;;5031988;28;20455;-77
2023/08/17 10:47:26;;;;;;;4.87;4.67;;;23.80;52.60;;;;;;5032709;28;20475;-77
2023/08/17 10:49:52;;;;;;;5.10;4.80;;;23.80;52.60;;;;;;5032690;28;20467;-77
2023/08/17 10:52:31;;;;;;;5.33;5.13;;;23.70;52.60;;;;;;5031951;28;21018;-77
2023/08/17 10:55:05;;;;;;;5.00;4.80;;;23.80;52.70;;;;;;5031773;28;20571;-77
2023/08/17 10:57:32;;;;;;;5.47;5.13;;;23.80;52.70;;;;;;5028370;28;20459;-77
2023/08/17 11:00:15;;;;;;;5.50;5.20;;;23.80;52.70;;;;;;5033445;28;20876;-77
2023/08/17 11:02:42;;;;;;;4.50;4.30;;;23.80;52.70;;;;;;5030983;28;20540;-77
2023/08/17 11:05:08;;;;;;;5.10;4.80;;;23.80;52.80;;;;;;5014292;28;20914;-77
2023/08/17 11:07:41;;;;;;;5.33;5.13;;;23.80;52.70;;;;;;5032182;28;20463;-77
2023/08/17 11:10:19;;;;;;;5.27;4.97;;;23.80;52.70;;;;;;5031873;28;20589;-77
2023/08/17 11:12:45;;;;;;;5.67;5.33;;;23.80;52.70;;;;;;5032645;28;20443;-77
2023/08/17 11:15:10;;;;;;;5.50;5.10;;;23.80;52.80;;;;;;5031114;28;20466;-77
2023/08/17 11:17:36;;;;;;;5.47;5.17;;;23.80;52.80;;;;;;5033711;28;20218;-77
2023/08/17 11:20:02;;;;;;;5.10;4.80;;;23.80;52.80;;;;;;5030253;28;20689;-77
2023/08/17 11:22:28;;;;;;;5.03;4.73;;;23.80;52.80;;;;;;5010317;28;20287;-77
2023/08/17 11:24:54;;;;;;;5.93;5.47;;;23.80;52.80;;;;;;5031909;28;20459;-77
2023/08/17 11:27:20;;;;;;;5.80;5.50;;;23.80;52.80;;;;;;5030219;28;20724;-77
2023/08/17 11:29:46;;;;;;;5.60;5.23;;;23.80;52.80;;;;;;5032677;28;20451;-77
2023/08/17 11:32:12;;;;;;;5.40;5.20;;;23.80;52.80;;;;;;5030892;28;20470;-78
2023/08/17 11:34:38;;;;;;;5.50;5.20;;;23.80;52.80;;;;;;5013832;28;20302;-77
2023/08/17 11:37:04;;;;;;;5.80;5.50;;;23.80;52.90;;;;;;5033482;28;21626;-77
2023/08/17 11:39:33;;;;;;;6.10;5.70;;;23.80;52.90;;;;;;5024236;28;20840;-77
2023/08/17 11:42:00;;;;;;;5.63;5.33;;;23.80;52.90;;;;;;5031251;28;20521;-77
2023/08/17 11:44:25;;;;;;;5.20;5.00;;;23.70;52.80;;;;;;5019867;28;21555;-77
2023/08/17 11:46:51;;;;;;;5.90;5.60;;;23.80;52.80;;;;;;5028900;28;20589;-78
2023/08/17 11:49:17;;;;;;;6.00;5.70;;;23.80;52.90;;;;;;5031841;28;20689;-78
2023/08/17 11:51:43;;;;;;;5.70;5.40;;;23.80;52.80;;;;;;5027031;28;20237;-77
2023/08/17 11:54:08;;;;;;;5.50;5.20;;;23.80;52.90;;;;;;5013306;28;20230;-77
2023/08/17 11:56:34;;;;;;;5.63;5.33;;;23.80;52.90;;;;;;5009632;28;20248;-77
2023/08/17 11:59:18;;;;;;;5.73;5.40;;;23.80;52.90;;;;;;5029880;28;20298;-77
2023/08/17 12:01:44;;;;;;;5.63;5.33;;;23.80;52.90;;;;;;5028445;28;20226;-77
2023/08/17 12:04:09;;;;;;;5.33;5.10;;;23.80;52.90;;;;;;5030547;28;20568;-78
2023/08/17 12:06:42;;;;;;;5.43;5.20;;;23.80;53.00;;;;;;5028286;28;20313;-77
2023/08/17 12:09:08;;;;;;;5.93;5.63;;;23.80;52.90;;;;;;5028789;28;20268;-78
2023/08/17 12:11:33;;;;;;;5.60;5.30;;;23.80;52.90;;;;;;5010154;28;20471;-79
2023/08/17 12:13:59;;;;;;;5.90;5.60;;;23.80;52.90;;;;;;5026008;28;20226;-78
2023/08/17 12:16:24;;;;;;;6.03;5.73;;;23.80;52.90;;;;;;5029305;28;20218;-78
2023/08/17 12:18:52;;;;;;;4.80;4.60;;;23.80;53.00;;;;;;5010809;28;20229;-77
2023/08/17 12:21:21;;;;;;;5.30;5.10;;;23.80;53.00;;;;;;5021503;28;20243;-78
2023/08/17 12:23:47;;;;;;;5.77;5.47;;;23.80;52.90;;;;;;5003205;28;20487;-78
2023/08/17 12:26:22;;;;;;;5.13;4.90;;;23.80;52.90;;;;;;5004555;28;20494;-78
2023/08/17 12:28:49;;;;;;;5.70;5.40;;;23.80;52.90;;;;;;5025796;28;20486;-78
2023/08/17 12:31:21;;;;;;;5.80;5.50;;;23.80;53.00;;;;;;5014564;28;20485;-78
2023/08/17 12:33:46;;;;;;;6.43;6.13;;;23.80;52.90;;;;;;5034529;28;20529;-78
2023/08/17 12:36:12;;;;;;;7.07;6.53;;;23.80;53.00;;;;;;5009966;28;20556;-77
2023/08/17 12:38:41;;;;;;;5.97;5.57;;;23.80;53.00;;;;;;5027486;28;20217;-78
2023/08/17 12:41:07;;;;;;;5.77;5.47;;;23.80;53.00;;;;;;5007636;28;20222;-78
2023/08/17 12:43:33;;;;;;;6.37;6.03;;;23.80;52.90;;;;;;5031200;28;20462;-77
2023/08/17 12:45:58;;;;;;;5.90;5.60;;;23.80;52.90;;;;;;5030131;28;20246;-79